sensor_id;sensor_type;location;lat;lon;timestamp;temperature;humidity
71088;SHT31;58747;50.674;4.616;2023-02-04T00:22:03;8.92;90.17
71088;SHT31;58747;50.674;4.616;2023-02-04T04:54:03;8.32;90.17
71088;SHT31;58747;50.674;4.616;2023-02-04T07:13:08;8.22;90.86
71088;SHT31;58747;50.674;4.616;2023-02-04T14:19:00;9.93;88.55
71088;SHT31;58747;50.674;4.616;2023-02-04T15:46:37;9.89;89.66
71088;SHT31;58747;50.674;4.616;2023-02-04T15:49:02;9.84;89.62
71088;SHT31;58747;50.674;4.616;2023-02-04T15:51:28;9.86;89.46
71088;SHT31;58747;50.674;4.616;2023-02-04T15:53:53;9.80;89.44
71088;SHT31;58747;50.674;4.616;2023-02-04T15:56:19;9.77;89.42
71088;SHT31;58747;50.674;4.616;2023-02-04T15:58:44;9.73;89.59
71088;SHT31;58747;50.674;4.616;2023-02-04T16:01:09;9.69;89.90
71088;SHT31;58747;50.674;4.616;2023-02-04T16:03:35;9.62;90.14
71088;SHT31;58747;50.674;4.616;2023-02-04T16:06:03;9.60;90.21
71088;SHT31;58747;50.674;4.616;2023-02-04T16:08:29;9.62;90.15
71088;SHT31;58747;50.674;4.616;2023-02-04T16:10:54;9.62;90.01
71088;SHT31;58747;50.674;4.616;2023-02-04T16:13:20;9.60;89.88
71088;SHT31;58747;50.674;4.616;2023-02-04T16:15:45;9.59;89.85
71088;SHT31;58747;50.674;4.616;2023-02-04T16:18:11;9.59;90.00
71088;SHT31;58747;50.674;4.616;2023-02-04T16:20:36;9.56;89.97
71088;SHT31;58747;50.674;4.616;2023-02-04T16:23:02;9.77;89.89
71088;SHT31;58747;50.674;4.616;2023-02-04T16:25:28;9.93;89.24
71088;SHT31;58747;50.674;4.616;2023-02-04T16:27:54;10.04;88.68
71088;SHT31;58747;50.674;4.616;2023-02-04T16:30:19;10.05;88.64
71088;SHT31;58747;50.674;4.616;2023-02-04T16:32:44;10.12;88.61
71088;SHT31;58747;50.674;4.616;2023-02-04T16:35:10;10.15;88.26
71088;SHT31;58747;50.674;4.616;2023-02-04T16:37:35;10.10;88.07
71088;SHT31;58747;50.674;4.616;2023-02-04T16:40:03;10.03;88.38
71088;SHT31;58747;50.674;4.616;2023-02-04T16:42:28;9.98;88.35
71088;SHT31;58747;50.674;4.616;2023-02-04T16:44:55;9.87;88.50
71088;SHT31;58747;50.674;4.616;2023-02-04T16:47:20;9.77;88.78
71088;SHT31;58747;50.674;4.616;2023-02-04T16:49:46;9.67;89.04
71088;SHT31;58747;50.674;4.616;2023-02-04T16:52:12;9.59;89.38
71088;SHT31;58747;50.674;4.616;2023-02-04T16:54:38;9.57;89.41
71088;SHT31;58747;50.674;4.616;2023-02-04T16:57:03;9.52;89.57
71088;SHT31;58747;50.674;4.616;2023-02-04T16:59:29;9.49;89.72
71088;SHT31;58747;50.674;4.616;2023-02-04T17:01:56;9.40;89.85
71088;SHT31;58747;50.674;4.616;2023-02-04T17:04:22;9.45;89.69
71088;SHT31;58747;50.674;4.616;2023-02-04T17:06:48;9.42;89.46
71088;SHT31;58747;50.674;4.616;2023-02-04T17:09:14;9.40;89.75
71088;SHT31;58747;50.674;4.616;2023-02-04T17:11:39;9.36;90.03
71088;SHT31;58747;50.674;4.616;2023-02-04T17:14:07;9.36;89.77
71088;SHT31;58747;50.674;4.616;2023-02-04T17:16:34;9.31;89.79
71088;SHT31;58747;50.674;4.616;2023-02-04T17:18:59;9.29;89.61
71088;SHT31;58747;50.674;4.616;2023-02-04T17:21:27;9.29;89.77
71088;SHT31;58747;50.674;4.616;2023-02-04T17:23:53;9.24;89.85
71088;SHT31;58747;50.674;4.616;2023-02-04T17:26:20;9.24;89.96
71088;SHT31;58747;50.674;4.616;2023-02-04T17:28:45;9.24;89.92
71088;SHT31;58747;50.674;4.616;2023-02-04T17:31:11;9.24;89.94
71088;SHT31;58747;50.674;4.616;2023-02-04T17:33:36;9.19;90.19
71088;SHT31;58747;50.674;4.616;2023-02-04T17:36:02;9.15;90.37
71088;SHT31;58747;50.674;4.616;2023-02-04T17:38:29;9.14;90.46
71088;SHT31;58747;50.674;4.616;2023-02-04T17:40:55;9.15;90.31
71088;SHT31;58747;50.674;4.616;2023-02-04T17:43:21;9.15;90.13
71088;SHT31;58747;50.674;4.616;2023-02-04T17:45:46;9.12;90.25
71088;SHT31;58747;50.674;4.616;2023-02-04T17:48:12;9.11;90.24
71088;SHT31;58747;50.674;4.616;2023-02-04T17:50:37;9.11;89.99
71088;SHT31;58747;50.674;4.616;2023-02-04T17:53:04;9.11;90.13
71088;SHT31;58747;50.674;4.616;2023-02-04T17:55:32;9.07;90.10
71088;SHT31;58747;50.674;4.616;2023-02-04T17:58:00;9.04;90.30
71088;SHT31;58747;50.674;4.616;2023-02-04T18:00:28;9.04;89.89
71088;SHT31;58747;50.674;4.616;2023-02-04T18:02:54;9.04;90.07
71088;SHT31;58747;50.674;4.616;2023-02-04T18:05:22;8.94;90.70
71088;SHT31;58747;50.674;4.616;2023-02-04T18:07:58;8.98;90.52
71088;SHT31;58747;50.674;4.616;2023-02-04T18:10:30;9.07;90.01
71088;SHT31;58747;50.674;4.616;2023-02-04T18:12:58;9.03;89.77
71088;SHT31;58747;50.674;4.616;2023-02-04T18:15:29;9.00;89.70
71088;SHT31;58747;50.674;4.616;2023-02-04T18:17:58;8.95;89.87
71088;SHT31;58747;50.674;4.616;2023-02-04T18:20:25;8.95;89.97
71088;SHT31;58747;50.674;4.616;2023-02-04T18:22:58;8.94;89.95
71088;SHT31;58747;50.674;4.616;2023-02-04T18:25:27;8.95;89.69
71088;SHT31;58747;50.674;4.616;2023-02-04T18:27:52;8.95;89.72
71088;SHT31;58747;50.674;4.616;2023-02-04T18:30:20;8.92;89.91
71088;SHT31;58747;50.674;4.616;2023-02-04T18:32:46;8.91;89.99
71088;SHT31;58747;50.674;4.616;2023-02-04T18:37:48;8.85;90.26
71088;SHT31;58747;50.674;4.616;2023-02-04T18:40:26;8.83;90.42
71088;SHT31;58747;50.674;4.616;2023-02-04T18:43:28;8.84;90.38
71088;SHT31;58747;50.674;4.616;2023-02-04T18:45:56;8.83;90.54
71088;SHT31;58747;50.674;4.616;2023-02-04T18:50:52;8.81;90.37
71088;SHT31;58747;50.674;4.616;2023-02-04T18:53:26;8.81;90.14
71088;SHT31;58747;50.674;4.616;2023-02-04T18:55:55;8.78;90.15
71088;SHT31;58747;50.674;4.616;2023-02-04T18:58:33;8.74;89.85
71088;SHT31;58747;50.674;4.616;2023-02-04T19:01:10;8.87;90.35
71088;SHT31;58747;50.674;4.616;2023-02-04T19:03:59;8.84;90.12
71088;SHT31;58747;50.674;4.616;2023-02-04T19:11:42;8.74;90.08
71088;SHT31;58747;50.674;4.616;2023-02-04T19:14:26;8.77;89.94
71088;SHT31;58747;50.674;4.616;2023-02-04T19:25:33;8.84;90.22
71088;SHT31;58747;50.674;4.616;2023-02-04T19:28:01;8.84;89.93
71088;SHT31;58747;50.674;4.616;2023-02-04T19:32:54;8.75;89.97
71088;SHT31;58747;50.674;4.616;2023-02-04T19:35:27;8.74;89.88
71088;SHT31;58747;50.674;4.616;2023-02-04T19:38:00;8.74;89.79
71088;SHT31;58747;50.674;4.616;2023-02-04T19:40:36;8.75;89.83
71088;SHT31;58747;50.674;4.616;2023-02-04T19:43:21;8.70;89.85
71088;SHT31;58747;50.674;4.616;2023-02-04T19:45:48;8.70;89.84
71088;SHT31;58747;50.674;4.616;2023-02-04T19:48:32;8.75;89.73
71088;SHT31;58747;50.674;4.616;2023-02-04T19:51:00;8.73;89.91
71088;SHT31;58747;50.674;4.616;2023-02-04T19:53:30;8.70;89.86
71088;SHT31;58747;50.674;4.616;2023-02-04T19:55:55;8.67;89.93
71088;SHT31;58747;50.674;4.616;2023-02-04T19:58:23;8.66;89.85
71088;SHT31;58747;50.674;4.616;2023-02-04T20:06:25;8.61;89.89
71088;SHT31;58747;50.674;4.616;2023-02-04T20:08:57;8.61;89.92
71088;SHT31;58747;50.674;4.616;2023-02-04T20:13:57;8.57;89.68
71088;SHT31;58747;50.674;4.616;2023-02-04T20:19:21;8.46;90.48
71088;SHT31;58747;50.674;4.616;2023-02-04T20:29:51;8.46;90.05
71088;SHT31;58747;50.674;4.616;2023-02-04T20:32:24;8.46;90.07
71088;SHT31;58747;50.674;4.616;2023-02-04T20:34:58;8.39;90.33
71088;SHT31;58747;50.674;4.616;2023-02-04T20:37:27;8.39;90.60
71088;SHT31;58747;50.674;4.616;2023-02-04T20:39:52;8.40;90.07
71088;SHT31;58747;50.674;4.616;2023-02-04T20:44:53;8.43;90.16
71088;SHT31;58747;50.674;4.616;2023-02-04T20:47:24;8.37;89.83
71088;SHT31;58747;50.674;4.616;2023-02-04T20:49:54;8.39;89.42
71088;SHT31;58747;50.674;4.616;2023-02-04T20:55:26;8.33;89.94
71088;SHT31;58747;50.674;4.616;2023-02-04T21:00:35;8.33;89.98
71088;SHT31;58747;50.674;4.616;2023-02-04T21:05:40;8.30;90.12
71088;SHT31;58747;50.674;4.616;2023-02-04T21:08:23;8.33;89.62
71088;SHT31;58747;50.674;4.616;2023-02-04T21:10:49;8.36;89.68
71088;SHT31;58747;50.674;4.616;2023-02-04T21:13:14;8.32;89.69
71088;SHT31;58747;50.674;4.616;2023-02-04T21:15:39;8.29;90.06
71088;SHT31;58747;50.674;4.616;2023-02-04T21:18:05;8.30;89.79
71088;SHT31;58747;50.674;4.616;2023-02-04T21:20:30;8.29;90.17
71088;SHT31;58747;50.674;4.616;2023-02-04T21:22:59;8.28;89.79
71088;SHT31;58747;50.674;4.616;2023-02-04T21:25:24;8.29;89.61
71088;SHT31;58747;50.674;4.616;2023-02-04T21:27:50;8.26;90.24
71088;SHT31;58747;50.674;4.616;2023-02-04T21:30:15;8.24;89.97
71088;SHT31;58747;50.674;4.616;2023-02-04T21:32:42;8.21;89.94
71088;SHT31;58747;50.674;4.616;2023-02-04T21:35:07;8.21;89.98
71088;SHT31;58747;50.674;4.616;2023-02-04T21:37:33;8.22;89.71
71088;SHT31;58747;50.674;4.616;2023-02-04T21:39:58;8.17;89.75
71088;SHT31;58747;50.674;4.616;2023-02-04T21:42:23;8.17;89.95
71088;SHT31;58747;50.674;4.616;2023-02-04T21:44:49;8.17;89.72
71088;SHT31;58747;50.674;4.616;2023-02-04T21:47:14;8.21;89.35
71088;SHT31;58747;50.674;4.616;2023-02-04T21:49:41;8.22;89.38
71088;SHT31;58747;50.674;4.616;2023-02-04T21:52:07;8.19;89.64
71088;SHT31;58747;50.674;4.616;2023-02-04T21:54:32;8.19;89.60
71088;SHT31;58747;50.674;4.616;2023-02-04T21:56:58;8.12;89.52
71088;SHT31;58747;50.674;4.616;2023-02-04T21:59:31;8.16;89.54
71088;SHT31;58747;50.674;4.616;2023-02-04T22:01:56;8.17;89.43
71088;SHT31;58747;50.674;4.616;2023-02-04T22:04:21;8.16;89.54
71088;SHT31;58747;50.674;4.616;2023-02-04T22:06:47;8.13;89.46
71088;SHT31;58747;50.674;4.616;2023-02-04T22:09:12;8.13;89.47
71088;SHT31;58747;50.674;4.616;2023-02-04T22:11:37;8.10;89.61
71088;SHT31;58747;50.674;4.616;2023-02-04T22:14:03;8.05;89.95
71088;SHT31;58747;50.674;4.616;2023-02-04T22:16:28;8.09;89.68
71088;SHT31;58747;50.674;4.616;2023-02-04T22:18:53;8.05;89.80
71088;SHT31;58747;50.674;4.616;2023-02-04T22:21:19;8.01;89.96
71088;SHT31;58747;50.674;4.616;2023-02-04T22:23:44;8.02;90.24
71088;SHT31;58747;50.674;4.616;2023-02-04T22:26:09;8.05;89.85
71088;SHT31;58747;50.674;4.616;2023-02-04T22:28:35;8.06;89.49
71088;SHT31;58747;50.674;4.616;2023-02-04T22:31:03;8.06;89.36
71088;SHT31;58747;50.674;4.616;2023-02-04T22:33:28;7.99;89.92
71088;SHT31;58747;50.674;4.616;2023-02-04T22:35:53;7.98;89.87
71088;SHT31;58747;50.674;4.616;2023-02-04T22:38:19;8.01;89.87
71088;SHT31;58747;50.674;4.616;2023-02-04T22:40:45;8.03;89.97
71088;SHT31;58747;50.674;4.616;2023-02-04T22:43:13;8.01;89.98
71088;SHT31;58747;50.674;4.616;2023-02-04T22:45:38;8.02;89.83
71088;SHT31;58747;50.674;4.616;2023-02-04T22:48:04;7.98;90.18
71088;SHT31;58747;50.674;4.616;2023-02-04T22:50:29;7.96;89.98
71088;SHT31;58747;50.674;4.616;2023-02-04T22:52:54;7.99;90.04
71088;SHT31;58747;50.674;4.616;2023-02-04T22:55:20;8.05;90.07
71088;SHT31;58747;50.674;4.616;2023-02-04T22:57:45;8.09;89.76
71088;SHT31;58747;50.674;4.616;2023-02-04T23:00:11;8.15;89.71
71088;SHT31;58747;50.674;4.616;2023-02-04T23:02:37;8.12;89.84
71088;SHT31;58747;50.674;4.616;2023-02-04T23:05:02;8.12;89.70
71088;SHT31;58747;50.674;4.616;2023-02-04T23:07:28;8.17;89.44
71088;SHT31;58747;50.674;4.616;2023-02-04T23:09:53;8.16;89.50
71088;SHT31;58747;50.674;4.616;2023-02-04T23:12:19;8.12;89.41
71088;SHT31;58747;50.674;4.616;2023-02-04T23:14:46;8.12;89.50
71088;SHT31;58747;50.674;4.616;2023-02-04T23:17:13;8.01;89.98
71088;SHT31;58747;50.674;4.616;2023-02-04T23:19:39;8.08;89.65
71088;SHT31;58747;50.674;4.616;2023-02-04T23:22:05;8.08;89.59
71088;SHT31;58747;50.674;4.616;2023-02-04T23:24:31;8.10;89.74
71088;SHT31;58747;50.674;4.616;2023-02-04T23:26:56;8.13;89.63
71088;SHT31;58747;50.674;4.616;2023-02-04T23:29:25;8.10;89.63
71088;SHT31;58747;50.674;4.616;2023-02-04T23:31:51;8.13;89.76
71088;SHT31;58747;50.674;4.616;2023-02-04T23:34:16;8.12;89.82
71088;SHT31;58747;50.674;4.616;2023-02-04T23:36:42;8.12;89.65
71088;SHT31;58747;50.674;4.616;2023-02-04T23:39:09;8.15;89.39
71088;SHT31;58747;50.674;4.616;2023-02-04T23:41:35;8.12;89.32
71088;SHT31;58747;50.674;4.616;2023-02-04T23:44:00;8.15;89.43
71088;SHT31;58747;50.674;4.616;2023-02-04T23:46:25;8.13;89.48
71088;SHT31;58747;50.674;4.616;2023-02-04T23:48:50;8.12;89.52
71088;SHT31;58747;50.674;4.616;2023-02-04T23:51:16;8.12;89.29
71088;SHT31;58747;50.674;4.616;2023-02-04T23:53:41;8.08;89.34
71088;SHT31;58747;50.674;4.616;2023-02-04T23:56:07;8.03;89.62
71088;SHT31;58747;50.674;4.616;2023-02-04T23:58:32;8.02;89.56
